Time;durP1;ratioP1;P1;durP2;ratioP2;P2;SDS_P1;SDS_P2;PMS_P1;PMS_P2;Temp;Humidity;BMP_temperature;BMP_pressure;BME280_temperature;BME280_humidity;BME280_pressure;Samples;Min_cycle;Max_cycle;Signal;HPM_P1;HPM_P2
2021/06/15 09:29:07;;;;;;;9.45;6.92;;;;;;;28.07;90.66;100423.77;1619994;84;21183;-85
2021/06/15 10:17:09;;;;;;;7.60;7.00;;;;;;;29.85;58.52;100379.22;1631163;86;21571;-86
2021/06/15 11:08:41;;;;;;;7.15;6.17;;;;;;;29.27;71.27;100308.48;1610225;87;21049;-85
2021/06/15 11:11:20;;;;;;;6.87;6.28;;;;;;;29.33;62.42;100304.55;1609682;87;21010;-87
2021/06/15 11:13:54;;;;;;;8.30;6.65;;;;;;;29.26;66.72;100296.66;1642019;85;21110;-87
2021/06/15 11:16:44;;;;;;;6.92;6.42;;;;;;;29.26;61.89;100298.82;1645407;86;21465;-85
2021/06/15 11:19:19;;;;;;;6.62;6.12;;;;;;;29.29;60.72;100293.48;1631396;87;21108;-82
2021/06/15 11:22:11;;;;;;;6.22;5.72;;;;;;;29.25;62.57;100297.70;1629517;87;21104;-84
2021/06/15 11:24:46;;;;;;;;;;;;;;;29.10;58.92;100302.34;1614339;87;21101;-87
2021/06/15 11:27:19;;;;;;;6.80;6.20;;;;;;;28.86;57.04;100305.22;1627051;86;21224;-82
2021/06/15 11:29:49;;;;;;;8.65;6.33;;;;;;;28.83;59.98;100298.20;1628519;86;21618;-86
2021/06/15 11:32:27;;;;;;;6.55;6.05;;;;;;;28.98;57.76;100288.22;1610691;86;21108;-82
2021/06/15 11:35:03;;;;;;;7.05;6.40;;;;;;;29.15;61.22;100280.97;1624727;86;21034;-83
2021/06/15 11:37:45;;;;;;;7.15;6.50;;;;;;;29.32;58.59;100287.67;1622960;86;22096;-83
2021/06/15 11:40:27;;;;;;;5.90;5.42;;;;;;;29.45;57.56;100282.44;1633695;86;21166;-84
2021/06/15 11:42:59;;;;;;;6.53;5.92;;;;;;;29.54;55.51;100278.81;1615446;86;21082;-83
2021/06/15 11:45:33;;;;;;;11.57;6.67;;;;;;;29.42;54.25;100280.28;1637201;86;21565;-83
2021/06/15 11:48:31;;;;;;;9.55;6.50;;;;;;;29.16;52.73;100282.59;1610436;87;21176;-82
2021/06/15 11:50:55;;;;;;;6.22;5.62;;;;;;;28.95;54.55;100289.02;1616953;86;21110;-86
2021/06/15 11:53:24;;;;;;;6.58;6.08;;;;;;;28.95;63.34;100288.20;1575326;90;21094;-85
2021/06/15 11:55:55;;;;;;;6.30;5.70;;;;;;;29.15;67.33;100280.17;1641792;86;21045;-85
2021/06/15 11:58:35;;;;;;;6.03;5.62;;;;;;;29.41;64.78;100281.33;1583175;88;21015;-84
2021/06/15 12:01:12;;;;;;;6.33;5.72;;;;;;;29.66;59.72;100271.97;1629301;86;21580;-86
2021/06/15 12:03:45;;;;;;;5.50;5.10;;;;;;;29.82;62.69;100268.91;1602641;86;21572;-82
2021/06/15 12:06:16;;;;;;;5.70;5.30;;;;;;;29.75;53.86;100277.17;1616916;86;21126;-83
2021/06/15 12:08:47;;;;;;;6.00;5.42;;;;;;;29.50;54.42;100269.11;1610931;86;21074;-82
2021/06/15 12:11:18;;;;;;;6.30;5.80;;;;;;;29.46;57.03;100267.18;1622762;86;21080;-84
2021/06/15 12:13:49;;;;;;;5.80;5.22;;;;;;;29.43;54.55;100266.61;1639926;86;21045;-86
2021/06/15 12:16:26;;;;;;;6.03;5.53;;;;;;;29.51;61.29;100262.70;1619139;86;21164;-86
2021/06/15 12:18:58;;;;;;;7.50;5.50;;;;;;;29.66;58.45;100253.19;1633098;84;21107;-87
2021/06/15 12:21:34;;;;;;;7.35;5.90;;;;;;;29.87;69.77;100255.02;1625796;86;21125;-85
2021/06/15 12:24:04;;;;;;;6.45;5.70;;;;;;;30.11;63.16;100253.39;1629299;86;21072;-84
2021/06/15 12:26:43;;;;;;;5.78;5.30;;;;;;;30.35;58.71;100261.11;1628820;86;21073;-84
2021/06/15 12:29:13;;;;;;;5.15;4.83;;;;;;;30.53;55.44;100257.23;1626372;86;21179;-85
2021/06/15 12:31:47;;;;;;;5.15;4.60;;;;;;;30.59;49.13;100255.41;1646096;85;21171;-82
2021/06/15 12:34:18;;;;;;;5.85;5.45;;;;;;;30.45;50.92;100255.83;1608829;87;21079;-83
2021/06/15 12:36:51;;;;;;;5.22;4.92;;;;;;;30.20;50.59;100255.89;1640607;86;21091;-85
2021/06/15 12:39:29;;;;;;;5.80;5.40;;;;;;;29.86;50.81;100249.37;1659872;86;21595;-81
2021/06/15 12:42:09;;;;;;;6.08;5.35;;;;;;;29.55;50.09;100237.52;1657180;85;21678;-85
2021/06/15 12:44:39;;;;;;;5.40;5.00;;;;;;;29.28;50.37;100232.34;1649495;85;21159;-88
2021/06/15 12:47:15;;;;;;;;;;;;;;;29.10;52.32;100225.97;1661794;85;21107;-82
2021/06/15 12:49:52;;;;;;;5.80;5.30;;;;;;;29.07;63.58;100221.09;1618076;86;20182;-84
2021/06/15 12:52:19;;;;;;;5.58;5.08;;;;;;;29.17;61.21;100215.05;1611164;87;22238;-83
2021/06/15 12:54:49;;;;;;;5.78;5.22;;;;;;;29.32;57.53;100213.11;1631430;86;21686;-86
2021/06/15 12:57:22;;;;;;;5.37;5.03;;;;;;;29.32;57.57;100203.22;1632697;87;21161;-84
2021/06/15 13:00:09;;;;;;;6.45;5.50;;;;;;;29.19;56.94;100191.48;1612318;87;21148;-87
2021/06/15 13:02:38;;;;;;;6.75;5.33;;;;;;;28.99;60.15;100200.08;1619309;85;21243;-83
2021/06/15 13:05:11;;;;;;;7.37;5.25;;;;;;;28.75;65.43;100212.36;1637020;86;21529;-86
2021/06/15 13:07:38;;;;;;;5.75;5.25;;;;;;;28.49;71.25;100213.29;1654652;85;21085;-85
2021/06/15 13:10:21;;;;;;;7.33;5.42;;;;;;;28.32;77.55;100211.42;1633662;85;20975;-82
2021/06/15 13:12:51;;;;;;;6.10;5.50;;;;;;;28.36;85.25;100214.45;1624625;85;21085;-85
2021/06/15 13:15:22;;;;;;;7.92;5.80;;;;;;;28.58;77.43;100207.02;1657981;86;21084;-85
2021/06/15 13:18:03;;;;;;;7.83;5.15;;;;;;;28.73;71.27;100205.92;1637342;85;21575;-83
2021/06/15 13:20:31;;;;;;;11.12;5.33;;;;;;;28.74;66.93;100214.75;1636108;86;21068;-83
2021/06/15 13:23:00;;;;;;;9.25;5.25;;;;;;;28.69;75.21;100209.30;1659477;85;21213;-83
2021/06/15 13:25:31;;;;;;;7.72;4.62;;;;;;;28.67;78.55;100219.45;1615385;85;21053;-82
2021/06/15 13:28:04;;;;;;;5.15;4.65;;;;;;;28.65;80.41;100229.88;1637699;86;21135;-85
2021/06/15 13:30:40;;;;;;;4.72;4.25;;;;;;;28.73;86.21;100238.58;1657428;86;21092;-83
2021/06/15 17:49:27;;;;;;;14.15;9.48;;;;;;;19.90;100.00;100409.91;1836890;76;21511;-84
2021/06/15 17:51:55;;;;;;;13.85;8.85;;;;;;;19.67;100.00;100425.30;1795216;76;21087;-85
2021/06/15 17:54:22;;;;;;;11.22;8.95;;;;;;;19.49;100.00;100421.69;1817509;76;21001;-87
2021/06/15 17:56:52;;;;;;;10.90;9.40;;;;;;;19.44;100.00;100424.53;1812509;76;22220;-86
2021/06/15 17:59:19;;;;;;;13.00;10.15;;;;;;;19.40;100.00;100445.19;1845761;75;21032;-85
2021/06/15 18:01:50;;;;;;;11.97;10.03;;;;;;;19.36;100.00;100464.52;1829254;77;21078;-85
2021/06/15 18:04:22;;;;;;;9.45;8.68;;;;;;;19.43;100.00;100465.94;1854401;76;21037;-85
2021/06/15 18:06:59;;;;;;;9.65;8.80;;;;;;;19.53;100.00;100459.92;1797024;77;21053;-90
2021/06/15 18:09:17;;;;;;;9.58;7.95;;;;;;;19.65;100.00;100464.27;1821614;77;21084;-86
2021/06/15 18:11:45;;;;;;;8.60;7.72;;;;;;;19.66;100.00;100465.11;1827323;77;21497;-86
2021/06/15 18:14:14;;;;;;;10.85;8.00;;;;;;;19.65;100.00;100448.94;1865819;76;21448;-88
2021/06/15 18:16:42;;;;;;;8.73;7.80;;;;;;;19.68;100.00;100440.64;1830102;76;21154;-86
2021/06/15 18:19:10;;;;;;;11.68;7.58;;;;;;;19.68;100.00;100424.80;1813714;77;20976;-86
2021/06/15 18:21:37;;;;;;;9.00;8.10;;;;;;;19.64;100.00;100419.56;1818597;76;21301;-85
2021/06/15 18:24:05;;;;;;;8.13;7.22;;;;;;;19.59;100.00;100409.53;1827165;76;20998;-89
2021/06/15 18:26:32;;;;;;;17.02;8.00;;;;;;;19.55;100.00;100393.72;1822981;75;20986;-85
2021/06/15 18:29:00;;;;;;;7.15;6.45;;;;;;;19.54;100.00;100390.27;1820771;78;21014;-85
2021/06/15 18:31:27;;;;;;;7.03;6.33;;;;;;;19.55;100.00;100399.00;1841609;77;21509;-86
2021/06/15 18:34:02;;;;;;;13.20;6.62;;;;;;;19.50;100.00;100417.20;1737221;81;21094;-86
2021/06/15 18:39:13;;;;;;;20.40;8.00;;;;;;;19.47;100.00;100442.16;1754097;79;22067;-85
2021/06/15 18:41:53;;;;;;;8.13;7.22;;;;;;;19.47;100.00;100450.08;1732314;79;21100;-84
2021/06/15 18:44:20;;;;;;;10.45;7.58;;;;;;;19.51;100.00;100449.22;1723168;81;21014;-85
2021/06/15 18:46:58;;;;;;;;;;;;;;;;;;;;;
2021/06/15 18:49:22;;;;;;;10.88;7.42;;;;;;;19.53;100.00;100433.52;1760573;78;21085;-85
2021/06/15 18:51:50;;;;;;;16.75;7.62;;;;;;;19.52;100.00;100429.23;1737395;79;21040;-87
2021/06/15 18:54:29;;;;;;;;;;;;;;;;;;;;;
2021/06/15 18:57:05;;;;;;;;;;;;;;;;;;;;;
2021/06/15 18:59:46;;;;;;;10.00;6.80;;;;;;;19.49;100.00;100410.28;1745627;79;21152;-85
2021/06/15 19:02:15;;;;;;;8.35;7.20;;;;;;;19.41;100.00;100397.99;1775089;79;21041;-88
2021/06/15 19:04:43;;;;;;;8.20;7.03;;;;;;;19.36;100.00;100397.20;1797512;79;20953;-86
2021/06/15 19:07:23;;;;;;;;;;;;;;;;;;;;;
2021/06/15 19:09:59;;;;;;;;;;;;;;;;;;;;;
2021/06/15 19:12:39;;;;;;;;;;;;;;;;;;;;;
2021/06/15 19:15:32;;;;;;;;;;;;;;;;;;;;;
2021/06/15 19:18:16;;;;;;;;;;;;;;;;;;;;;
2021/06/15 19:20:43;;;;;;;;;;;;;;;;;;;;;
2021/06/15 19:26:58;;;;;;;8.23;7.42;;;;;;;19.03;100.00;100439.69;1344795;105;21656;-84
2021/06/15 19:29:48;;;;;;;;;;;;;;;;;;;;;
2021/06/15 19:32:49;;;;;;;9.00;7.47;;;;;;;19.02;100.00;100438.03;1328346;105;21245;-84
2021/06/15 19:35:16;;;;;;;8.83;7.95;;;;;;;19.02;100.00;100435.91;1432507;92;21849;-86
2021/06/15 19:37:43;;;;;;;10.00;8.68;;;;;;;18.95;100.00;100433.66;1580370;85;21124;-87
2021/06/15 19:40:12;;;;;;;9.43;8.43;;;;;;;18.87;100.00;100434.48;1689318;80;21066;-87
2021/06/15 19:42:40;;;;;;;9.48;8.58;;;;;;;18.75;100.00;100439.33;1789039;79;21595;-85
2021/06/15 19:45:11;;;;;;;9.13;8.23;;;;;;;18.63;100.00;100434.13;1762520;77;21006;-85
2021/06/15 19:47:40;;;;;;;9.73;8.73;;;;;;;18.58;100.00;100426.73;1794893;78;21010;-89
2021/06/15 19:50:10;;;;;;;9.10;8.35;;;;;;;18.51;100.00;100424.47;1818272;78;21654;-88
2021/06/15 19:52:40;;;;;;;9.23;8.38;;;;;;;18.40;100.00;100420.37;1792790;78;21045;-86
2021/06/15 19:55:09;;;;;;;8.55;7.83;;;;;;;18.29;100.00;100417.14;1817785;77;21532;-87
2021/06/15 19:57:36;;;;;;;9.43;8.60;;;;;;;18.20;100.00;100419.48;1793061;78;21053;-86
2021/06/15 20:00:06;;;;;;;9.65;8.78;;;;;;;18.13;100.00;100435.14;1792733;78;21095;-87
2021/06/15 20:02:33;;;;;;;9.43;8.53;;;;;;;18.12;100.00;100444.54;1793082;78;21042;-85
2021/06/15 20:05:00;;;;;;;9.60;8.70;;;;;;;18.11;100.00;100444.20;1767126;78;22004;-88
2021/06/15 20:07:27;;;;;;;9.00;8.08;;;;;;;18.04;100.00;100441.41;1792857;78;21073;-86
2021/06/15 20:09:54;;;;;;;8.18;7.40;;;;;;;17.95;100.00;100434.04;1818208;78;20954;-86
2021/06/15 20:12:21;;;;;;;8.48;7.72;;;;;;;17.90;100.00;100424.96;1792969;78;21408;-86
2021/06/15 20:14:49;;;;;;;7.87;7.10;;;;;;;17.84;100.00;100421.69;1792940;78;21116;-86
2021/06/15 20:17:17;;;;;;;8.68;7.10;;;;;;;17.80;100.00;100418.06;1793118;78;21064;-86
2021/06/15 20:19:46;;;;;;;7.05;6.42;;;;;;;17.79;100.00;100410.34;1793010;78;21069;-88
2021/06/15 20:22:13;;;;;;;7.87;7.08;;;;;;;17.77;100.00;100401.77;1795501;78;21529;-84
2021/06/15 20:24:40;;;;;;;7.53;6.75;;;;;;;17.76;100.00;100394.86;1828647;77;21060;-86
2021/06/15 20:27:12;;;;;;;7.35;6.67;;;;;;;17.75;100.00;100384.00;1819583;77;21001;-86
2021/06/15 20:29:40;;;;;;;6.60;6.00;;;;;;;17.73;100.00;100368.88;1791278;78;21057;-87
2021/06/15 20:32:07;;;;;;;6.40;5.80;;;;;;;17.69;100.00;100366.25;1768811;78;21036;-85
2021/06/15 20:34:35;;;;;;;7.17;6.47;;;;;;;17.70;100.00;100369.20;1794985;78;20989;-85
2021/06/15 20:37:03;;;;;;;7.05;6.33;;;;;;;17.73;100.00;100367.56;1768146;78;21123;-86
2021/06/15 20:39:30;;;;;;;7.47;6.30;;;;;;;17.75;100.00;100372.15;1794593;77;21502;-86
2021/06/15 20:41:57;;;;;;;6.95;6.35;;;;;;;17.81;100.00;100360.45;1794706;77;21120;-85
2021/06/15 20:44:26;;;;;;;7.97;6.40;;;;;;;17.94;100.00;100361.75;1794568;78;21048;-88
2021/06/15 20:46:57;;;;;;;8.80;6.33;;;;;;;18.04;100.00;100362.37;1794906;77;21017;-87
2021/06/15 20:49:24;;;;;;;6.80;6.17;;;;;;;18.15;100.00;100351.95;1794634;78;21610;-86
2021/06/15 20:51:55;;;;;;;8.23;6.28;;;;;;;18.25;100.00;100338.59;1795801;78;21056;-87
2021/06/15 20:54:23;;;;;;;7.12;6.20;;;;;;;18.34;100.00;100328.34;1795361;77;21483;-85
2021/06/15 20:56:50;;;;;;;9.00;5.97;;;;;;;18.42;100.00;100330.09;1769045;77;21076;-86
2021/06/15 20:59:17;;;;;;;6.72;5.35;;;;;;;18.47;100.00;100322.98;1794616;78;21551;-86
2021/06/15 21:01:44;;;;;;;9.53;5.35;;;;;;;18.52;100.00;100312.23;1798645;77;21017;-88
2021/06/15 21:04:11;;;;;;;8.25;5.78;;;;;;;18.53;100.00;100313.88;1794346;78;21013;-86
2021/06/15 21:06:39;;;;;;;8.03;5.45;;;;;;;18.57;100.00;100314.36;1795559;78;21835;-87
2021/06/15 21:09:07;;;;;;;5.37;4.87;;;;;;;18.66;100.00;100320.38;1794679;77;21531;-86
2021/06/15 21:11:36;;;;;;;5.83;4.87;;;;;;;18.75;100.00;100314.05;1819771;78;20993;-86
2021/06/15 21:14:03;;;;;;;6.40;5.25;;;;;;;18.83;100.00;100313.99;1794737;78;21449;-85
2021/06/15 21:16:31;;;;;;;6.35;5.53;;;;;;;18.81;100.00;100315.98;1820321;77;21037;-85
2021/06/15 21:18:58;;;;;;;8.68;5.65;;;;;;;18.62;100.00;100315.15;1794607;78;21289;-85
2021/06/15 21:21:27;;;;;;;5.40;4.90;;;;;;;18.40;100.00;100291.22;1794917;78;21115;-87
2021/06/15 21:23:58;;;;;;;7.50;5.65;;;;;;;18.25;100.00;100286.70;1793527;77;21024;-86
2021/06/15 21:26:25;;;;;;;6.03;5.15;;;;;;;18.24;100.00;100287.69;1807497;77;21533;-86
2021/06/15 21:28:52;;;;;;;9.55;5.90;;;;;;;18.28;100.00;100296.06;1815642;77;20927;-86
2021/06/15 21:31:19;;;;;;;10.80;6.47;;;;;;;18.26;100.00;100293.61;1815122;77;21937;-88
2021/06/15 21:33:47;;;;;;;9.35;5.53;;;;;;;18.18;100.00;100286.27;1836826;77;20979;-87
2021/06/15 21:36:14;;;;;;;6.35;5.58;;;;;;;18.16;100.00;100293.52;1813692;77;20966;-86
2021/06/15 21:38:41;;;;;;;12.47;5.50;;;;;;;18.17;100.00;100298.60;1813604;78;21536;-86
2021/06/15 21:41:09;;;;;;;16.37;5.47;;;;;;;18.26;100.00;100304.66;1813613;77;20963;-87
2021/06/15 21:43:38;;;;;;;10.48;5.60;;;;;;;18.35;100.00;100314.14;1813195;77;21375;-85
2021/06/15 21:46:05;;;;;;;17.02;6.00;;;;;;;18.41;100.00;100323.17;1836946;77;21037;-86
2021/06/15 21:48:32;;;;;;;9.10;6.17;;;;;;;18.50;100.00;100334.00;1814275;77;20998;-86
2021/06/15 21:51:00;;;;;;;6.12;5.58;;;;;;;18.57;100.00;100359.98;1813408;78;20966;-87
2021/06/15 21:53:27;;;;;;;18.35;6.05;;;;;;;18.48;100.00;100375.52;1813636;77;21085;-87
2021/06/15 21:55:54;;;;;;;7.45;6.17;;;;;;;18.39;100.00;100374.75;1813465;77;21125;-86
2021/06/15 21:58:21;;;;;;;7.40;5.92;;;;;;;18.43;100.00;100366.00;1813441;78;21081;-89
2021/06/15 22:00:48;;;;;;;6.25;5.75;;;;;;;18.48;100.00;100362.34;1813683;77;21057;-86
2021/06/15 22:03:17;;;;;;;6.30;5.45;;;;;;;18.52;100.00;100364.12;1813980;78;20995;-87
2021/06/15 22:05:44;;;;;;;7.30;6.55;;;;;;;18.46;100.00;100357.76;1812688;77;21046;-88
2021/06/15 22:08:13;;;;;;;7.28;6.62;;;;;;;18.36;100.00;100357.14;1836469;77;21971;-86
2021/06/15 22:10:42;;;;;;;9.80;6.40;;;;;;;18.22;100.00;100354.26;1836752;77;21042;-86
2021/06/15 22:13:13;;;;;;;6.80;6.20;;;;;;;18.10;100.00;100355.13;1813479;77;21588;-86
2021/06/15 22:15:40;;;;;;;6.87;6.17;;;;;;;18.04;100.00;100357.62;1837154;77;20982;-88
2021/06/15 22:18:07;;;;;;;8.28;5.70;;;;;;;18.00;100.00;100353.67;1813854;78;21045;-88
2021/06/15 22:20:34;;;;;;;8.00;6.75;;;;;;;18.07;100.00;100351.99;1836762;77;21131;-87
2021/06/15 22:23:03;;;;;;;6.87;6.00;;;;;;;18.13;100.00;100346.06;1813522;77;20966;-87
2021/06/15 22:25:33;;;;;;;7.92;6.40;;;;;;;18.20;100.00;100352.28;1812218;78;20982;-86
2021/06/15 22:28:02;;;;;;;7.60;6.90;;;;;;;18.23;100.00;100348.48;1813715;77;21069;-88
2021/06/15 22:30:29;;;;;;;8.25;6.78;;;;;;;18.23;100.00;100347.16;1813705;78;21018;-86
2021/06/15 22:33:01;;;;;;;15.38;6.80;;;;;;;18.20;100.00;100342.22;1813905;77;21151;-86
2021/06/15 22:35:30;;;;;;;;;;;;;;;18.20;100.00;100344.86;1816269;77;20994;-88
2021/06/15 22:37:58;;;;;;;9.85;6.42;;;;;;;18.18;100.00;100339.77;1813990;77;20184;-88
2021/06/15 22:40:25;;;;;;;8.33;6.20;;;;;;;18.18;100.00;100342.41;1813564;77;21545;-86
2021/06/15 22:42:52;;;;;;;6.83;6.22;;;;;;;18.18;100.00;100350.31;1813057;77;21058;-86
2021/06/15 22:45:20;;;;;;;7.30;6.70;;;;;;;18.19;100.00;100350.64;1813604;77;21133;-86
2021/06/15 22:47:47;;;;;;;7.15;6.47;;;;;;;18.19;100.00;100354.59;1813508;78;21070;-86
2021/06/15 22:50:22;;;;;;;8.73;6.37;;;;;;;18.17;100.00;100351.30;1813511;77;21034;-86
2021/06/15 22:52:51;;;;;;;7.53;6.83;;;;;;;18.07;100.00;100350.20;1813534;78;21517;-87
2021/06/15 22:55:20;;;;;;;12.55;6.45;;;;;;;18.02;100.00;100345.95;1806431;78;21032;-85
2021/06/15 22:57:51;;;;;;;8.83;6.85;;;;;;;18.00;100.00;100348.41;1794688;78;21536;-88
2021/06/15 23:00:26;;;;;;;7.33;6.55;;;;;;;17.96;100.00;100352.71;1819639;77;21087;-88
2021/06/15 23:02:53;;;;;;;7.55;6.70;;;;;;;17.91;100.00;100358.13;1791885;78;21017;-88
2021/06/15 23:05:21;;;;;;;7.25;6.65;;;;;;;17.84;100.00;100364.55;1794437;77;21009;-89
2021/06/15 23:07:48;;;;;;;8.63;7.25;;;;;;;17.83;100.00;100364.23;1794585;78;21585;-87
2021/06/15 23:10:20;;;;;;;11.70;6.35;;;;;;;17.79;100.00;100365.56;1794107;77;21438;-90
2021/06/15 23:12:47;;;;;;;8.85;6.12;;;;;;;17.76;100.00;100364.10;1819587;78;21013;-86
2021/06/15 23:15:15;;;;;;;7.95;5.30;;;;;;;17.74;100.00;100367.39;1797011;77;21095;-86
2021/06/15 23:17:43;;;;;;;5.58;5.05;;;;;;;17.72;100.00;100364.61;1794644;77;21064;-85
2021/06/15 23:20:12;;;;;;;7.92;5.28;;;;;;;17.72;100.00;100367.23;1794574;77;21063;-88
2021/06/15 23:22:41;;;;;;;9.68;5.28;;;;;;;17.75;100.00;100370.35;1819542;77;21112;-89
2021/06/15 23:25:13;;;;;;;5.75;5.12;;;;;;;17.75;100.00;100362.45;1794659;77;21013;-86
2021/06/15 23:27:39;;;;;;;;;;;;;;;17.77;100.00;100376.28;1797509;78;21183;-88
2021/06/15 23:30:09;;;;;;;7.12;4.92;;;;;;;17.73;100.00;100367.56;1794672;78;20199;-86
2021/06/15 23:32:37;;;;;;;6.85;5.20;;;;;;;17.68;100.00;100363.28;1794524;78;21092;-87
2021/06/15 23:35:06;;;;;;;7.80;4.92;;;;;;;17.57;100.00;100363.98;1794692;78;21048;-86
2021/06/15 23:37:34;;;;;;;5.85;5.25;;;;;;;17.45;100.00;100356.09;1794302;77;20946;-87
2021/06/15 23:40:01;;;;;;;6.08;5.10;;;;;;;17.33;100.00;100353.81;1795056;77;21001;-87
2021/06/15 23:42:28;;;;;;;6.33;5.72;;;;;;;17.24;100.00;100356.13;1819287;77;20960;-86
2021/06/15 23:44:57;;;;;;;7.22;5.87;;;;;;;17.16;100.00;100352.98;1794846;78;21206;-85
2021/06/15 23:47:24;;;;;;;6.72;6.00;;;;;;;17.07;100.00;100353.97;1794584;78;21424;-88
2021/06/15 23:49:52;;;;;;;6.97;5.85;;;;;;;17.00;100.00;100349.04;1794639;78;21657;-86
2021/06/15 23:52:19;;;;;;;8.20;6.53;;;;;;;16.97;100.00;100353.33;1794544;77;21044;-86
2021/06/15 23:54:46;;;;;;;7.47;6.65;;;;;;;17.01;100.00;100357.27;1794595;78;21536;-89
2021/06/15 23:57:13;;;;;;;7.30;6.40;;;;;;;16.98;100.00;100352.34;1822263;77;21007;-85
2021/06/15 23:59:40;;;;;;;6.78;6.20;;;;;;;16.94;100.00;100352.33;1784352;78;21061;-87
